Fort Lauderdale, FL (33311)

10:44 PM EDT on May 22, 2015 (GMT -0400)
Mills Pond Park Area | | Change Station
CLOSE
Current Station
Personal Weather Station
Location: Wilton Manors, FL
Elevation: 10 ft
Nearby Weather Stations

Elev 10 ft 26.16 °N, 80.16 °W | Updated 32 seconds ago

Overcast
Overcast
79.9 °F
Feels Like 82 °F
N
0.0
Wind Variable Wind from North
Gusts 0.0 mph

Today
High -- | Low -- °F
--% Chance of Precip.
Yesterday
High -- | Low -- °F
Precip. -- in
6:31 AM 8:03 PM
Waxing Crescent, 26% visible
Pressure 30.12 in
Visibility 10.0 miles
Clouds Clear
Heat Index 82 °F
Dew Point 68 °F
Humidity 67%
Rainfall 0.00 in
Snow Depth Not available.
UV 0 out of 12
Pollen 3.00 out of 12
Air Quality Not available.
Flu Activity Sporadic
METAR KFXE 230153Z 02004KT 10SM FU CLR 26/21 A3011 RMK AO2 SLP199 T02610206

More Conditions Fewer Conditions

Pressure 30.12 in
Visibility 10.0 miles
Clouds Clear
Heat Index 82 °F
Dew Point 68 °F
Humidity 67%
Rainfall 0.00 in
Snow Depth Not available.
UV 0 out of 12
Pollen 3.00 out of 12
Air Quality Not available.
Flu Activity Sporadic
METAR KFXE 230153Z 02004KT 10SM FU CLR 26/21 A3011 RMK AO2 SLP199 T02610206

More Conditions Fewer Conditions

10-Day Weather Forecast

Almanac

Astronomy

May. 22, 2015 Rise Set
Actual Time
Civil Twilight
Nautical Twilight
Astronomical Twilight
Moon
Length of Visible Light
Length of Day
Tomorrow will be .
, % of the Moon is Illuminated

Today's Extremes

State Highs State Lows

Community

WunderPhotos

Upload Photos

1,823,371 photos uploaded!

WunderBlogs® & News

Nearby

Air Quality

  Air Quality AQ Index Pollutant
Not available.

Snow Depth

Station Depth Elevation

Earthquake Activity

City Distance Mag. Time & Date
Minimum magnitude displayed is 2.5.

Coastal Water Temperatures

Place Temperature

Stations

Nearby Weather Stations

Station Location Temp. Windchill Dew Point Humidity Wind Precip. Elev Updated Type